Time;durP1;ratioP1;P1;durP2;ratioP2;P2;SDS_P1;SDS_P2;PMS_P1;PMS_P2;Temp;Humidity;BMP_temperature;BMP_pressure;BME280_temperature;BME280_humidity;BME280_pressure;Samples;Min_cycle;Max_cycle;Signal;HPM_P1;HPM_P2
2022/04/24 00:01:32;;;;;;;9.68;8.00;;;6.80;99.90;;;;;;5047841;28;20021;-52
2022/04/24 00:03:58;;;;;;;12.88;9.00;;;6.70;99.90;;;;;;5041241;28;20808;-51
2022/04/24 00:06:24;;;;;;;12.55;9.38;;;6.70;99.90;;;;;;5049302;28;20440;-56
2022/04/24 00:08:50;;;;;;;14.10;9.25;;;6.80;99.90;;;;;;5048178;28;20366;-55
2022/04/24 00:11:16;;;;;;;15.75;10.02;;;6.70;99.90;;;;;;5049355;28;20028;-52
2022/04/24 00:13:42;;;;;;;13.55;8.63;;;6.70;99.90;;;;;;5049067;28;20033;-53
2022/04/24 00:16:09;;;;;;;11.63;8.68;;;6.70;99.90;;;;;;5047797;28;20052;-53
2022/04/24 00:18:37;;;;;;;12.85;8.82;;;6.70;99.90;;;;;;5028753;28;20021;-54
2022/04/24 00:21:06;;;;;;;14.00;9.02;;;6.70;99.90;;;;;;5029568;28;20026;-52
2022/04/24 00:23:32;;;;;;;12.48;8.55;;;6.70;99.90;;;;;;5027527;28;20083;-50
2022/04/24 00:25:58;;;;;;;16.15;9.20;;;6.60;99.90;;;;;;5037287;28;20037;-54
2022/04/24 00:28:24;;;;;;;15.27;9.45;;;6.70;99.90;;;;;;5027294;28;20079;-54
2022/04/24 00:30:50;;;;;;;12.60;9.10;;;6.70;99.90;;;;;;5029495;28;20662;-56
2022/04/24 01:17:04;;;;;;;6.35;5.15;;;6.30;99.90;;;;;;5019836;28;20096;-53
2022/04/24 01:19:30;;;;;;;6.97;4.90;;;6.30;99.90;;;;;;5028565;28;20026;-54
2022/04/24 01:21:57;;;;;;;7.03;5.25;;;6.30;99.90;;;;;;5028174;28;20037;-53
2022/04/24 01:24:24;;;;;;;8.18;4.65;;;6.20;99.90;;;;;;5028464;28;20060;-53
2022/04/24 01:26:50;;;;;;;6.50;4.40;;;6.20;99.90;;;;;;5028764;28;20079;-51
2022/04/24 01:29:16;;;;;;;6.82;4.72;;;6.20;99.90;;;;;;5029088;28;20026;-53
2022/04/24 01:31:46;;;;;;;8.15;5.25;;;6.10;99.90;;;;;;5046922;28;20029;-51
2022/04/24 01:34:12;;;;;;;8.35;5.13;;;6.10;99.90;;;;;;5052891;28;20032;-51
2022/04/24 01:36:38;;;;;;;9.60;4.57;;;6.10;99.90;;;;;;5050626;28;20037;-52
2022/04/24 01:39:07;;;;;;;5.93;3.88;;;6.10;99.90;;;;;;5052416;28;20055;-53
2022/04/24 01:41:34;;;;;;;5.07;4.47;;;6.10;99.90;;;;;;5035334;28;20100;-51
2022/04/24 01:43:59;;;;;;;5.90;4.10;;;6.10;99.90;;;;;;5050712;28;20021;-50
2022/04/24 01:46:25;;;;;;;10.38;3.67;;;6.10;99.90;;;;;;5043436;28;20044;-50
2022/04/24 01:48:51;;;;;;;6.10;4.10;;;6.10;99.90;;;;;;5044354;28;20059;-53
2022/04/24 01:51:17;;;;;;;5.85;4.35;;;6.10;99.90;;;;;;5050402;28;20147;-51
2022/04/24 01:53:43;;;;;;;4.53;3.67;;;6.10;99.90;;;;;;5044604;28;20056;-52
2022/04/24 01:56:10;;;;;;;4.45;3.63;;;6.10;99.90;;;;;;5031014;28;20059;-50
2022/04/24 01:58:36;;;;;;;7.82;4.20;;;6.10;99.90;;;;;;5028170;28;20719;-55
2022/04/24 02:01:02;;;;;;;6.55;4.28;;;6.10;99.90;;;;;;5032113;28;20040;-53
2022/04/24 02:03:29;;;;;;;5.63;4.38;;;6.00;99.90;;;;;;5031697;28;20065;-53
2022/04/24 02:05:55;;;;;;;6.05;3.70;;;6.10;99.90;;;;;;5033146;28;20393;-49
2022/04/24 02:08:20;;;;;;;4.45;3.05;;;6.10;99.90;;;;;;5051632;28;20036;-52
2022/04/24 02:10:46;;;;;;;4.05;3.53;;;6.00;99.90;;;;;;5048904;28;20037;-53
2022/04/24 02:13:12;;;;;;;9.60;3.88;;;6.00;99.90;;;;;;5031495;28;20032;-51
2022/04/24 02:15:38;;;;;;;4.45;3.17;;;6.00;99.90;;;;;;5031234;28;20037;-50
2022/04/24 02:18:03;;;;;;;6.15;3.58;;;6.00;99.90;;;;;;5027966;28;20021;-53
2022/04/24 02:20:29;;;;;;;5.90;3.53;;;5.90;99.90;;;;;;5048091;28;20029;-50
2022/04/24 02:22:57;;;;;;;4.40;3.70;;;5.90;99.90;;;;;;5051426;28;20492;-50
2022/04/24 02:25:24;;;;;;;6.47;3.75;;;5.90;99.90;;;;;;5034297;28;20489;-50
2022/04/24 02:27:49;;;;;;;5.75;3.25;;;5.90;99.90;;;;;;5047064;28;20047;-53
2022/04/24 02:30:15;;;;;;;4.40;2.83;;;5.90;99.90;;;;;;5032436;28;20489;-51
2022/04/24 02:32:40;;;;;;;9.73;3.97;;;5.80;99.90;;;;;;5031097;28;20052;-52
2022/04/24 02:35:06;;;;;;;4.78;2.80;;;5.80;99.90;;;;;;5032595;28;20090;-51
2022/04/24 02:37:32;;;;;;;5.07;3.40;;;5.80;99.90;;;;;;5031708;28;20570;-52
2022/04/24 02:39:58;;;;;;;6.43;3.00;;;5.80;99.90;;;;;;5031618;28;20075;-53
2022/04/24 02:42:24;;;;;;;6.35;3.40;;;5.80;99.90;;;;;;5030027;28;20033;-52
2022/04/24 02:44:50;;;;;;;12.45;3.47;;;5.70;99.90;;;;;;5031505;28;20103;-54
2022/04/24 02:47:16;;;;;;;4.07;3.13;;;5.70;99.90;;;;;;5031560;28;20055;-52
2022/04/24 02:49:41;;;;;;;5.53;3.03;;;5.70;99.90;;;;;;5014625;28;20029;-54
2022/04/24 02:52:07;;;;;;;4.85;3.30;;;5.60;99.90;;;;;;5031128;28;20060;-52
2022/04/24 02:54:33;;;;;;;8.00;4.20;;;5.60;99.90;;;;;;5032912;28;20048;-52
2022/04/24 02:56:59;;;;;;;7.60;3.70;;;5.60;99.90;;;;;;5041654;28;20021;-54
2022/04/24 02:59:25;;;;;;;6.65;4.32;;;5.50;99.90;;;;;;5046438;28;20029;-52
2022/04/24 03:01:52;;;;;;;7.65;4.00;;;5.60;99.90;;;;;;5045782;28;20025;-53
2022/04/24 03:04:19;;;;;;;4.82;3.67;;;5.50;99.90;;;;;;5025498;28;20033;-53
2022/04/24 03:06:45;;;;;;;5.95;3.83;;;5.50;99.90;;;;;;5030904;28;20367;-52
2022/04/24 03:09:11;;;;;;;4.88;3.50;;;5.40;99.90;;;;;;5031161;28;20172;-54
2022/04/24 03:11:36;;;;;;;5.72;4.45;;;5.40;99.90;;;;;;5030426;28;20017;-51
2022/04/24 03:14:02;;;;;;;10.27;4.78;;;5.30;99.90;;;;;;5030671;28;20036;-51
2022/04/24 03:16:27;;;;;;;7.63;4.25;;;5.30;99.90;;;;;;5031140;28;20115;-56
2022/04/24 03:18:53;;;;;;;9.88;5.05;;;5.30;99.90;;;;;;5030870;28;20040;-50
2022/04/24 03:21:19;;;;;;;6.38;4.25;;;5.20;99.90;;;;;;5030653;28;20040;-50
2022/04/24 03:23:44;;;;;;;9.45;4.28;;;5.20;99.90;;;;;;5045632;28;20025;-52
2022/04/24 03:26:13;;;;;;;8.38;5.05;;;5.20;99.90;;;;;;5050393;28;20028;-50
2022/04/24 03:28:40;;;;;;;9.40;5.07;;;5.20;99.90;;;;;;5035348;28;20022;-51
2022/04/24 03:31:05;;;;;;;8.45;5.55;;;5.20;99.90;;;;;;5031662;28;20025;-52
2022/04/24 03:33:31;;;;;;;13.10;5.97;;;5.10;99.90;;;;;;5029807;28;20638;-53
2022/04/24 03:35:57;;;;;;;6.40;4.97;;;5.10;99.90;;;;;;5031982;28;20105;-51
2022/04/24 03:38:23;;;;;;;6.82;5.40;;;5.10;99.90;;;;;;5013164;28;20568;-54
2022/04/24 03:40:49;;;;;;;11.77;6.40;;;5.10;99.90;;;;;;5030390;28;20108;-51
2022/04/24 03:43:14;;;;;;;12.63;6.90;;;5.10;99.90;;;;;;5045370;28;20354;-50
2022/04/24 03:45:40;;;;;;;11.13;6.45;;;5.10;99.90;;;;;;5030207;28;20555;-50
2022/04/24 03:48:05;;;;;;;12.65;6.53;;;5.20;99.90;;;;;;5030097;28;20018;-49
2022/04/24 03:50:31;;;;;;;7.25;5.20;;;5.20;99.90;;;;;;5031320;28;20032;-50
2022/04/24 03:52:57;;;;;;;10.80;7.57;;;5.20;99.90;;;;;;5029571;28;20029;-51
2022/04/24 03:55:22;;;;;;;10.95;6.78;;;5.10;99.90;;;;;;5029938;28;20389;-53
2022/04/24 03:57:48;;;;;;;14.95;7.85;;;5.20;99.90;;;;;;5030057;28;20485;-55
2022/04/24 04:00:14;;;;;;;12.05;6.82;;;5.20;99.90;;;;;;5031072;28;20112;-49
2022/04/24 04:02:45;;;;;;;12.15;7.15;;;5.20;99.90;;;;;;5040595;28;20052;-54
2022/04/24 04:05:10;;;;;;;10.88;6.28;;;5.20;99.90;;;;;;5030020;28;20037;-55
2022/04/24 04:07:36;;;;;;;13.68;6.78;;;5.20;99.90;;;;;;5030043;28;20022;-51
2022/04/24 04:10:02;;;;;;;10.90;7.63;;;5.20;99.90;;;;;;5029749;28;20052;-51
2022/04/24 04:12:28;;;;;;;11.93;7.47;;;5.20;99.90;;;;;;5029539;28;20509;-51
2022/04/24 04:14:53;;;;;;;13.38;7.55;;;5.10;99.90;;;;;;5029534;28;20021;-52
2022/04/24 04:17:19;;;;;;;11.35;6.53;;;5.10;99.90;;;;;;5030951;28;20037;-53
2022/04/24 04:19:44;;;;;;;9.40;6.03;;;5.10;99.90;;;;;;5040780;28;20091;-53
2022/04/24 04:22:10;;;;;;;12.57;6.88;;;5.10;99.90;;;;;;5029461;28;20030;-52
2022/04/24 04:24:36;;;;;;;11.38;6.65;;;5.10;99.90;;;;;;5030920;28;20065;-51
2022/04/24 04:27:02;;;;;;;11.30;7.13;;;5.10;99.90;;;;;;5049343;28;20102;-54
2022/04/24 04:29:27;;;;;;;12.05;7.28;;;5.10;99.90;;;;;;5047979;28;20033;-52
2022/04/24 04:31:53;;;;;;;11.93;7.45;;;5.10;99.90;;;;;;5048539;28;20025;-53
2022/04/24 04:34:19;;;;;;;10.82;7.75;;;5.10;99.90;;;;;;5048896;28;20108;-53
2022/04/24 04:36:45;;;;;;;11.88;7.05;;;5.10;99.90;;;;;;5048180;28;20037;-52
2022/04/24 04:39:10;;;;;;;12.05;7.38;;;5.10;99.90;;;;;;5048673;28;20435;-52
2022/04/24 04:41:36;;;;;;;9.98;7.30;;;5.10;99.90;;;;;;5031210;28;20047;-52
2022/04/24 04:44:02;;;;;;;11.55;7.55;;;5.10;99.90;;;;;;5044521;28;20079;-53
2022/04/24 04:46:27;;;;;;;14.55;7.85;;;5.10;99.90;;;;;;5034991;28;20029;-54
2022/04/24 04:48:53;;;;;;;16.90;8.02;;;5.10;99.90;;;;;;5047244;28;20098;-50
2022/04/24 04:51:18;;;;;;;18.80;8.38;;;5.10;99.90;;;;;;5049065;28;20037;-51
2022/04/24 04:53:44;;;;;;;13.93;8.95;;;5.10;99.90;;;;;;5047331;28;20044;-55
2022/04/24 04:56:09;;;;;;;12.95;9.02;;;5.10;99.90;;;;;;5048979;28;20161;-53
2022/04/24 04:58:35;;;;;;;17.83;9.80;;;5.10;99.90;;;;;;5034848;28;20071;-51
2022/04/24 05:01:00;;;;;;;11.45;8.38;;;5.10;99.90;;;;;;5029030;28;20040;-50
2022/04/24 05:03:26;;;;;;;11.85;8.27;;;5.10;99.90;;;;;;5028596;28;20108;-51
2022/04/24 05:05:52;;;;;;;14.85;8.40;;;5.10;99.90;;;;;;5038707;28;20060;-53
2022/04/24 05:08:18;;;;;;;16.20;8.18;;;5.20;99.90;;;;;;5037942;28;20138;-54
2022/04/24 05:10:43;;;;;;;12.18;8.45;;;5.20;99.90;;;;;;5033162;28;20103;-52
2022/04/24 05:13:10;;;;;;;12.05;7.43;;;5.30;99.90;;;;;;5032849;28;20104;-55
2022/04/24 05:15:35;;;;;;;12.75;7.43;;;5.30;99.90;;;;;;5032769;28;20382;-55
2022/04/24 05:18:01;;;;;;;14.55;8.15;;;5.40;99.90;;;;;;5041263;28;20044;-53
2022/04/24 05:20:26;;;;;;;11.30;7.20;;;5.40;99.90;;;;;;5051817;28;20044;-50
2022/04/24 05:23:03;;;;;;;10.40;7.20;;;5.40;99.90;;;;;;5043254;28;20141;-55
2022/04/24 05:25:29;;;;;;;15.30;7.07;;;5.50;99.90;;;;;;5006988;28;20505;-52
2022/04/24 05:27:54;;;;;;;12.77;7.30;;;5.70;99.90;;;;;;5032452;28;20024;-56
2022/04/24 05:30:20;;;;;;;12.93;6.60;;;5.70;99.90;;;;;;5034093;28;20017;-52
2022/04/24 05:32:47;;;;;;;12.35;6.05;;;5.80;99.90;;;;;;5032714;28;20394;-53
2022/04/24 05:35:13;;;;;;;8.32;5.32;;;5.90;99.90;;;;;;5032978;28;20067;-51
2022/04/24 05:37:40;;;;;;;10.43;5.93;;;6.00;99.90;;;;;;5036861;28;20033;-55
2022/04/24 05:40:06;;;;;;;7.97;5.28;;;6.00;99.90;;;;;;5034604;28;20103;-55
2022/04/24 05:42:32;;;;;;;11.73;5.93;;;6.10;99.90;;;;;;5037791;28;20033;-55
2022/04/24 05:44:59;;;;;;;10.35;5.18;;;6.20;99.90;;;;;;5032292;28;20079;-53
2022/04/24 05:47:25;;;;;;;7.30;5.07;;;6.30;99.90;;;;;;5034840;28;20097;-53
2022/04/24 05:49:50;;;;;;;7.28;5.43;;;6.40;99.90;;;;;;5046130;28;20580;-49
2022/04/24 05:52:16;;;;;;;10.23;4.85;;;6.50;99.90;;;;;;5033518;28;20053;-53
2022/04/24 05:54:41;;;;;;;6.45;4.30;;;6.50;99.90;;;;;;5032224;28;20045;-52
2022/04/24 05:57:07;;;;;;;6.05;4.05;;;6.60;99.90;;;;;;5032189;28;20041;-52
2022/04/24 05:59:33;;;;;;;7.50;3.70;;;6.70;99.90;;;;;;5032420;28;20104;-54
2022/04/24 06:01:58;;;;;;;6.40;4.47;;;6.80;99.90;;;;;;5047909;28;20477;-54
2022/04/24 06:04:24;;;;;;;6.97;3.72;;;6.90;99.90;;;;;;5049512;28;20079;-56
2022/04/24 06:06:49;;;;;;;5.80;3.80;;;6.90;99.90;;;;;;5032035;28;20103;-52
2022/04/24 06:09:18;;;;;;;12.60;4.88;;;7.00;99.90;;;;;;5050057;28;20017;-51
2022/04/24 06:11:44;;;;;;;5.13;3.50;;;7.10;99.90;;;;;;5037808;28;20017;-52
2022/04/24 06:14:09;;;;;;;5.28;3.72;;;7.10;99.90;;;;;;5031766;28;20024;-54
2022/04/24 06:16:36;;;;;;;6.18;3.90;;;7.20;99.90;;;;;;5031597;28;20485;-52
2022/04/24 06:19:02;;;;;;;5.25;3.65;;;7.30;99.90;;;;;;5031836;28;20029;-53
2022/04/24 06:21:27;;;;;;;5.72;3.88;;;7.40;99.90;;;;;;5039512;28;20504;-54
2022/04/24 06:23:53;;;;;;;5.10;3.10;;;7.50;99.90;;;;;;5031448;28;20029;-52
2022/04/24 06:26:18;;;;;;;6.68;3.67;;;7.50;99.90;;;;;;5031919;28;20068;-52
2022/04/24 06:28:44;;;;;;;8.55;4.03;;;7.60;99.90;;;;;;5034469;28;20035;-55
2022/04/24 06:31:09;;;;;;;6.00;3.83;;;7.70;99.90;;;;;;5038372;28;20048;-56
2022/04/24 06:33:35;;;;;;;7.05;4.18;;;7.80;99.90;;;;;;5031309;28;20034;-51
2022/04/24 06:36:02;;;;;;;4.65;3.72;;;7.90;99.90;;;;;;5031723;28;20112;-51
2022/04/24 06:38:28;;;;;;;5.55;3.50;;;8.00;99.90;;;;;;5031692;28;20029;-53
2022/04/24 06:40:53;;;;;;;6.05;3.05;;;8.10;99.90;;;;;;5031775;28;20022;-53
2022/04/24 06:43:19;;;;;;;5.68;3.33;;;8.20;99.90;;;;;;5031299;28;20033;-54
2022/04/24 06:45:45;;;;;;;5.43;3.45;;;8.30;99.90;;;;;;5031388;28;20029;-50
2022/04/24 06:48:16;;;;;;;8.73;3.58;;;8.40;99.90;;;;;;5031540;28;20457;-52
2022/04/24 06:50:43;;;;;;;5.05;3.08;;;8.50;99.90;;;;;;5031557;28;20056;-56
2022/04/24 06:53:12;;;;;;;6.97;3.95;;;8.70;99.90;;;;;;5030863;28;20014;-54
2022/04/24 06:55:40;;;;;;;8.80;4.35;;;8.80;99.90;;;;;;5013607;28;20140;-52
2022/04/24 06:58:08;;;;;;;6.10;3.13;;;8.90;99.90;;;;;;5031097;28;20030;-54
2022/04/24 07:00:37;;;;;;;5.78;3.28;;;9.00;99.90;;;;;;5030912;28;20287;-50
2022/04/24 07:03:18;;;;;;;5.40;3.60;;;9.10;99.90;;;;;;5045953;28;20030;-55
2022/04/24 07:05:44;;;;;;;4.85;2.97;;;9.20;99.90;;;;;;5033942;28;20025;-52
2022/04/24 07:08:11;;;;;;;5.50;3.47;;;9.40;99.90;;;;;;5050930;28;20013;-51
2022/04/24 07:10:37;;;;;;;5.18;3.05;;;9.60;99.90;;;;;;5050027;28;20059;-54
2022/04/24 07:13:04;;;;;;;9.43;3.30;;;9.70;99.90;;;;;;5050511;28;20079;-51
2022/04/24 07:15:31;;;;;;;5.22;2.80;;;9.90;99.90;;;;;;5031883;28;20053;-55
2022/04/24 07:17:58;;;;;;;3.42;2.85;;;9.80;99.90;;;;;;5031331;28;20458;-55
2022/04/24 07:20:24;;;;;;;3.88;3.17;;;9.90;99.90;;;;;;5031077;28;20060;-51
2022/04/24 07:22:54;;;;;;;5.75;2.95;;;10.00;99.90;;;;;;5030474;28;20048;-53
2022/04/24 07:25:22;;;;;;;7.78;3.33;;;10.00;99.90;;;;;;5045596;28;20040;-49
2022/04/24 07:27:48;;;;;;;5.40;3.17;;;10.10;99.90;;;;;;5035809;28;20080;-50
2022/04/24 07:30:15;;;;;;;4.32;3.15;;;10.00;99.90;;;;;;5045915;28;20025;-49
2022/04/24 07:32:43;;;;;;;6.60;2.75;;;9.90;99.90;;;;;;5026348;28;20108;-55
2022/04/24 07:35:16;;;;;;;4.68;3.40;;;10.00;99.90;;;;;;5049749;28;20036;-53
2022/04/24 07:37:42;;;;;;;7.32;3.47;;;10.10;99.90;;;;;;5048521;28;20036;-53
2022/04/24 07:40:11;;;;;;;3.97;2.83;;;10.20;99.90;;;;;;5050215;28;20428;-53
2022/04/24 07:42:48;;;;;;;4.30;2.78;;;10.40;99.90;;;;;;5049414;28;20032;-51
2022/04/24 07:45:25;;;;;;;3.38;2.75;;;10.50;99.90;;;;;;5050009;28;20017;-51
2022/04/24 07:47:52;;;;;;;4.05;2.85;;;10.50;99.90;;;;;;5034369;28;20493;-51
2022/04/24 07:50:19;;;;;;;2.95;2.63;;;10.50;99.90;;;;;;5048760;28;20516;-55
2022/04/24 07:52:47;;;;;;;3.88;3.10;;;10.60;99.90;;;;;;5034330;28;20030;-50
2022/04/24 07:55:13;;;;;;;5.55;3.20;;;10.70;99.90;;;;;;5045348;28;20033;-52
2022/04/24 07:57:39;;;;;;;5.07;3.10;;;10.80;99.90;;;;;;5030185;28;20022;-53
2022/04/24 08:00:11;;;;;;;5.80;3.00;;;11.00;99.90;;;;;;5031202;28;20030;-50
2022/04/24 08:02:48;;;;;;;4.47;3.05;;;11.20;99.90;;;;;;5029956;28;20447;-54
2022/04/24 08:05:21;;;;;;;4.25;2.83;;;11.10;99.90;;;;;;5030708;28;20134;-53
2022/04/24 08:07:46;;;;;;;3.90;2.88;;;11.00;99.90;;;;;;5045151;28;20025;-50
2022/04/24 08:10:12;;;;;;;3.10;2.80;;;11.00;99.90;;;;;;5031048;28;20510;-52
2022/04/24 08:12:38;;;;;;;3.72;2.63;;;11.10;99.90;;;;;;5029565;28;20037;-54
2022/04/24 08:15:03;;;;;;;3.78;2.95;;;11.20;99.90;;;;;;5029425;28;20131;-50
2022/04/24 08:17:29;;;;;;;4.05;2.15;;;11.10;99.90;;;;;;5029638;28;20025;-51
2022/04/24 08:19:55;;;;;;;4.25;2.65;;;11.30;99.90;;;;;;5040145;28;20439;-53
2022/04/24 08:22:21;;;;;;;2.97;2.22;;;11.40;99.90;;;;;;5030409;28;20037;-55
2022/04/24 08:24:46;;;;;;;3.65;2.78;;;11.50;99.90;;;;;;5029565;28;20034;-54
2022/04/24 08:27:12;;;;;;;4.25;2.63;;;11.70;99.90;;;;;;5038889;28;20045;-53
2022/04/24 08:29:37;;;;;;;3.13;2.50;;;12.00;99.90;;;;;;5049215;28;20029;-54
2022/04/24 08:32:03;;;;;;;4.35;2.53;;;12.20;99.90;;;;;;5029573;28;20033;-54
2022/04/24 08:34:29;;;;;;;3.67;2.50;;;12.20;99.90;;;;;;5030695;28;20064;-51
2022/04/24 08:36:54;;;;;;;4.75;2.30;;;12.30;99.90;;;;;;5029388;28;20083;-51
2022/04/24 08:39:20;;;;;;;2.92;2.30;;;12.20;99.90;;;;;;5048167;28;20040;-51
2022/04/24 08:41:46;;;;;;;5.05;3.33;;;12.40;99.90;;;;;;5028592;28;20018;-52
2022/04/24 08:44:12;;;;;;;6.47;2.90;;;12.40;99.90;;;;;;5030459;28;20445;-52
2022/04/24 08:46:38;;;;;;;4.38;2.67;;;12.20;99.90;;;;;;5047756;28;20033;-53
2022/04/24 08:49:03;;;;;;;5.20;2.83;;;12.30;99.90;;;;;;5048468;28;21661;-51
2022/04/24 08:51:29;;;;;;;3.25;2.33;;;12.50;99.90;;;;;;5048698;28;20052;-51
2022/04/24 08:53:56;;;;;;;4.03;2.67;;;12.90;99.90;;;;;;5047490;28;20013;-53
2022/04/24 08:56:23;;;;;;;4.30;2.60;;;13.00;99.90;;;;;;5016212;28;20022;-50
2022/04/24 08:58:48;;;;;;;5.72;2.63;;;12.80;99.90;;;;;;5010607;28;20448;-51
2022/04/24 09:01:14;;;;;;;2.80;2.50;;;12.80;99.90;;;;;;5048672;28;20107;-50
2022/04/24 09:03:40;;;;;;;4.78;2.72;;;12.70;99.90;;;;;;5030740;28;20375;-51
2022/04/24 09:06:05;;;;;;;4.72;2.50;;;12.60;99.90;;;;;;5048245;28;20033;-53
2022/04/24 09:08:35;;;;;;;4.97;2.50;;;12.60;99.90;;;;;;5049090;28;20473;-51
2022/04/24 09:11:02;;;;;;;4.82;2.78;;;12.60;99.90;;;;;;5037739;28;20185;-53
2022/04/24 09:14:14;;;;;;;3.90;2.72;;;12.30;99.90;;;;;;5048297;28;20205;-51
2022/04/24 09:16:33;;;;;;;3.85;2.70;;;12.40;99.90;;;;;;5048823;28;20040;-50
2022/04/24 09:18:59;;;;;;;4.25;2.80;;;12.20;99.90;;;;;;5048750;28;20017;-51
2022/04/24 09:21:25;;;;;;;3.50;2.28;;;12.00;99.90;;;;;;5036991;28;20034;-54
2022/04/24 09:23:50;;;;;;;12.10;2.83;;;11.60;99.90;;;;;;5028972;28;20069;-53
2022/04/24 09:26:16;;;;;;;5.63;2.70;;;11.50;99.90;;;;;;5028980;28;20111;-54
2022/04/24 09:28:43;;;;;;;3.45;2.83;;;11.60;99.90;;;;;;5035384;28;20021;-55
2022/04/24 09:31:10;;;;;;;4.90;2.70;;;11.80;99.90;;;;;;5048694;28;20040;-53
2022/04/24 09:33:39;;;;;;;3.35;2.20;;;12.10;99.90;;;;;;5030341;28;20116;-53
2022/04/24 09:36:06;;;;;;;6.72;2.55;;;12.10;99.90;;;;;;5048434;28;20032;-53
2022/04/24 09:38:42;;;;;;;5.68;2.45;;;12.10;99.90;;;;;;5033108;28;20043;-53
2022/04/24 09:41:21;;;;;;;3.10;2.80;;;12.30;99.90;;;;;;5028607;28;20501;-51
2022/04/24 09:43:48;;;;;;;4.22;2.13;;;12.50;99.90;;;;;;5043353;28;20037;-51
2022/04/24 09:46:13;;;;;;;2.28;2.08;;;12.40;99.90;;;;;;5030887;28;20025;-52
2022/04/24 09:48:39;;;;;;;6.32;3.00;;;12.30;99.90;;;;;;5033053;28;20392;-51
2022/04/24 09:51:04;;;;;;;2.92;2.65;;;12.30;99.90;;;;;;5029663;28;20526;-51
2022/04/24 09:53:32;;;;;;;4.63;2.78;;;12.30;99.90;;;;;;5051199;28;20056;-55
2022/04/24 09:55:59;;;;;;;3.72;2.45;;;12.30;99.90;;;;;;5051026;28;20189;-50
2022/04/24 09:58:25;;;;;;;2.60;2.40;;;12.50;99.90;;;;;;5034226;28;20388;-57
2022/04/24 10:00:51;;;;;;;3.72;2.47;;;12.60;99.90;;;;;;5051665;28;20025;-54
2022/04/24 10:03:19;;;;;;;4.03;2.58;;;12.50;99.90;;;;;;5052268;28;20044;-53
2022/04/24 10:05:47;;;;;;;3.63;2.38;;;12.40;99.90;;;;;;5035006;28;20036;-53
2022/04/24 10:08:14;;;;;;;4.35;2.80;;;12.20;99.90;;;;;;5032099;28;20021;-52
2022/04/24 10:10:40;;;;;;;2.90;2.15;;;11.90;99.90;;;;;;5032075;28;20063;-53
2022/04/24 10:13:11;;;;;;;3.63;2.60;;;12.00;99.90;;;;;;5032011;28;20017;-52
2022/04/24 10:15:48;;;;;;;3.55;2.30;;;12.20;99.90;;;;;;5047748;28;20689;-50
2022/04/24 10:18:44;;;;;;;4.55;2.28;;;12.40;99.90;;;;;;5050646;28;20447;-55
2022/04/24 10:21:34;;;;;;;7.05;2.85;;;12.40;99.90;;;;;;5052550;28;20070;-52
2022/04/24 10:24:10;;;;;;;3.33;1.95;;;12.20;99.90;;;;;;5035850;28;20060;-51
2022/04/24 10:26:36;;;;;;;;;;;12.20;99.90;;;;;;5018960;28;20018;-51
2022/04/24 10:29:08;;;;;;;4.30;2.70;;;12.20;99.90;;;;;;5024143;28;20620;-50
2022/04/24 10:31:54;;;;;;;2.83;2.50;;;12.00;99.90;;;;;;5012475;28;20513;-53
2022/04/24 10:34:20;;;;;;;3.85;2.13;;;11.90;99.90;;;;;;5015656;28;20048;-51
2022/04/24 10:36:59;;;;;;;3.15;2.20;;;12.10;99.90;;;;;;5022439;28;20026;-50
2022/04/24 10:39:30;;;;;;;4.82;2.55;;;12.40;99.90;;;;;;5000559;28;20383;-54
2022/04/24 10:41:58;;;;;;;5.28;2.22;;;12.60;99.90;;;;;;5013480;28;20017;-54
2022/04/24 10:44:23;;;;;;;3.80;1.85;;;12.80;99.90;;;;;;5021217;28;20026;-50
2022/04/24 10:46:50;;;;;;;4.75;2.80;;;12.80;99.90;;;;;;5021408;28;20493;-53
2022/04/24 10:49:18;;;;;;;5.25;2.53;;;12.90;99.90;;;;;;5020517;28;20399;-51
2022/04/24 10:51:56;;;;;;;2.25;2.05;;;12.80;99.90;;;;;;5014419;28;20021;-51
2022/04/24 10:54:31;;;;;;;3.22;2.25;;;12.80;99.90;;;;;;5032454;28;20057;-53
2022/04/24 10:56:57;;;;;;;3.20;2.50;;;12.80;99.90;;;;;;5018459;28;20486;-54
2022/04/24 10:59:23;;;;;;;5.10;2.72;;;12.90;99.90;;;;;;5023889;28;20090;-50
2022/04/24 11:01:50;;;;;;;5.75;2.55;;;13.10;99.90;;;;;;5022260;28;20584;-52
2022/04/24 11:04:17;;;;;;;4.70;3.03;;;13.10;99.90;;;;;;5010621;28;20030;-52
2022/04/24 11:06:58;;;;;;;4.30;2.55;;;13.00;99.90;;;;;;5014498;28;20039;-51
2022/04/24 11:09:29;;;;;;;4.55;2.33;;;13.00;99.90;;;;;;4998724;28;20033;-52
2022/04/24 11:12:01;;;;;;;2.90;2.63;;;13.20;99.90;;;;;;5039622;28;20025;-50
2022/04/24 11:14:28;;;;;;;6.20;2.63;;;13.40;99.90;;;;;;5019989;28;20017;-56
2022/04/24 11:16:59;;;;;;;4.57;2.47;;;13.70;99.90;;;;;;5030549;28;20057;-54
2022/04/24 11:19:30;;;;;;;3.85;2.40;;;13.50;99.90;;;;;;5029355;28;20119;-53
2022/04/24 11:21:58;;;;;;;3.88;2.63;;;13.60;99.80;;;;;;5030480;28;20036;-52
2022/04/24 11:24:31;;;;;;;5.07;2.85;;;13.50;99.90;;;;;;5030788;28;20424;-56
2022/04/24 11:27:02;;;;;;;12.27;3.67;;;13.20;99.90;;;;;;5030459;28;20033;-54
2022/04/24 11:29:28;;;;;;;4.88;2.88;;;12.90;99.90;;;;;;5030213;28;20101;-51
2022/04/24 11:31:55;;;;;;;4.00;2.83;;;12.70;99.90;;;;;;5030287;28;20112;-55
2022/04/24 11:34:22;;;;;;;3.28;2.63;;;12.60;99.90;;;;;;5029246;28;20045;-52
2022/04/24 11:36:48;;;;;;;6.70;2.65;;;12.60;99.90;;;;;;5030367;28;20034;-50
2022/04/24 11:39:15;;;;;;;5.47;3.25;;;12.60;99.90;;;;;;5030089;28;20022;-53
2022/04/24 11:41:43;;;;;;;4.78;2.45;;;12.20;99.90;;;;;;5029753;28;20533;-52
2022/04/24 11:52:27;;;;;;;4.97;3.20;;;12.30;99.90;;;;;;5030284;28;20527;-52
2022/04/24 11:54:54;;;;;;;4.53;3.13;;;12.20;99.90;;;;;;5030191;28;20065;-54
2022/04/24 11:57:20;;;;;;;5.78;3.30;;;12.20;99.90;;;;;;5029756;28;20113;-53
2022/04/24 11:59:55;;;;;;;4.90;3.35;;;12.10;99.90;;;;;;5029755;28;20460;-53
2022/04/24 12:02:26;;;;;;;4.80;3.10;;;12.30;99.90;;;;;;5029955;28;20202;-55
2022/04/24 12:04:52;;;;;;;4.82;3.30;;;12.40;99.90;;;;;;5030662;28;20513;-54
2022/04/24 12:07:19;;;;;;;7.63;3.70;;;12.60;99.90;;;;;;5031314;28;20500;-51
2022/04/24 12:09:44;;;;;;;6.85;3.22;;;12.70;99.90;;;;;;5045014;28;20032;-51
2022/04/24 12:12:13;;;;;;;6.07;3.63;;;12.80;99.90;;;;;;5029316;28;20477;-54
2022/04/24 12:14:40;;;;;;;5.72;3.42;;;12.60;99.90;;;;;;5030419;28;20086;-50
2022/04/24 12:17:08;;;;;;;4.88;3.30;;;12.50;99.90;;;;;;5029580;28;20017;-51
2022/04/24 12:19:34;;;;;;;5.68;3.05;;;12.40;99.90;;;;;;5029172;28;20109;-55
2022/04/24 12:22:10;;;;;;;3.75;2.85;;;12.40;99.90;;;;;;5046701;28;20021;-52
2022/04/24 12:24:41;;;;;;;4.47;3.28;;;12.00;99.90;;;;;;5035708;28;20413;-53
2022/04/24 12:27:09;;;;;;;4.60;3.22;;;11.90;99.90;;;;;;5037265;28;20126;-51
2022/04/24 12:29:49;;;;;;;6.28;3.67;;;11.40;99.90;;;;;;5040716;28;20013;-53
2022/04/24 12:32:16;;;;;;;5.47;3.50;;;11.30;99.90;;;;;;5028963;28;20592;-49
2022/04/24 12:34:44;;;;;;;5.30;3.60;;;11.60;99.90;;;;;;5042959;28;20083;-52
2022/04/24 12:37:10;;;;;;;7.45;3.47;;;12.00;99.90;;;;;;5029648;28;20025;-53
2022/04/24 12:39:37;;;;;;;6.13;3.70;;;12.30;99.90;;;;;;5029694;28;20100;-55
2022/04/24 12:42:17;;;;;;;5.85;2.88;;;12.30;99.90;;;;;;5028919;28;20030;-57
2022/04/24 12:44:44;;;;;;;7.07;2.97;;;12.30;99.90;;;;;;5029089;28;20037;-56
2022/04/24 12:47:10;;;;;;;5.28;3.47;;;12.20;99.90;;;;;;5032381;28;20393;-55
2022/04/24 12:49:37;;;;;;;6.40;3.50;;;12.20;99.90;;;;;;5029288;28;20437;-56
2022/04/24 12:52:03;;;;;;;7.43;3.55;;;12.00;99.90;;;;;;5034375;28;20112;-54
2022/04/24 12:54:29;;;;;;;6.25;3.28;;;11.90;99.90;;;;;;5047526;28;20033;-51
2022/04/24 12:56:55;;;;;;;5.60;3.75;;;11.80;99.90;;;;;;5048453;28;20610;-51
2022/04/24 12:59:20;;;;;;;9.27;3.90;;;11.90;99.90;;;;;;5048644;28;20025;-54
2022/04/24 13:01:46;;;;;;;8.65;3.78;;;11.90;99.90;;;;;;5048103;28;20041;-55
2022/04/24 13:04:12;;;;;;;6.30;3.90;;;11.60;99.90;;;;;;5049326;28;20129;-49
2022/04/24 13:06:37;;;;;;;6.05;2.90;;;11.90;99.90;;;;;;5048627;28;20043;-54
2022/04/24 13:09:08;;;;;;;4.13;3.10;;;12.10;99.90;;;;;;5049335;28;20029;-50
2022/04/24 13:11:33;;;;;;;4.68;3.63;;;12.20;99.90;;;;;;5030271;28;20021;-54
2022/04/24 13:13:59;;;;;;;6.53;3.85;;;12.20;99.90;;;;;;5031102;28;20023;-54
2022/04/24 13:19:12;;;;;;;5.38;3.42;;;12.30;99.90;;;;;;5049181;28;20086;-52
2022/04/24 13:21:38;;;;;;;10.93;4.20;;;12.30;99.90;;;;;;5046910;28;20029;-54
2022/04/24 13:24:04;;;;;;;7.97;4.13;;;12.30;99.90;;;;;;5048856;28;20038;-53
2022/04/24 13:26:30;;;;;;;7.43;4.20;;;12.10;99.90;;;;;;5048396;28;20029;-53
2022/04/24 13:28:55;;;;;;;7.97;4.00;;;11.80;99.90;;;;;;5052967;28;20092;-53
2022/04/24 13:31:21;;;;;;;5.97;4.07;;;11.70;99.90;;;;;;5051135;28;20043;-49
2022/04/24 13:33:47;;;;;;;6.13;3.90;;;11.50;99.90;;;;;;5033902;28;20041;-56
2022/04/24 13:36:14;;;;;;;7.72;3.88;;;11.60;99.90;;;;;;5051024;28;20032;-52
2022/04/24 13:38:40;;;;;;;5.70;3.20;;;11.80;99.90;;;;;;5052779;28;20035;-55
2022/04/24 13:41:06;;;;;;;6.30;3.67;;;11.90;99.90;;;;;;5052304;28;20033;-55
2022/04/24 13:43:34;;;;;;;8.20;3.55;;;12.00;99.90;;;;;;5052129;28;20099;-51
2022/04/24 13:46:00;;;;;;;5.53;3.97;;;12.00;99.90;;;;;;5052507;28;20462;-53